ENVR/VRY METAR and TAF weather

Enter ICAO airport designator
Station Type Date Time Source
ENVR METAR 2018/04/21 06:50 UTC NOAA

ENVR 210650Z 15013KT 9999 FEW006 BKN015 05/04 Q0995


Station Type Date Time Source
ENVR Decoded METAR 2018/04/21 06:50 UTC NOAA

Station name not available
Apr 21, 2018 - 02:50 AM EDT / 2018.04.21 0650 UTC
Wind: from the SSE (150 degrees) at 15 MPH (13 KT):0
Visibility: greater than 7 mile(s):0
Sky conditions: mostly cloudy
Temperature: 41 F (5 C)
Dew Point: 39 F (4 C)
Relative Humidity: 93%
Pressure (altimeter): 29.38 in. Hg (0995 hPa)
ob: ENVR 210650Z 15013KT 9999 FEW006 BKN015 05/04 Q0995
cycle: 7

Station Type Date Time Source
ENVR TAF UTC NOAA

Error!


Example: see airport list